sensor_id;sensor_type;location;lat;lon;timestamp;P1;durP1;ratioP1;P2;durP2;ratioP2
22359;SDS011;11347;52.030;4.690;2022-08-11T00:02:14;3.00;;;1.40;;
22359;SDS011;11347;52.030;4.690;2022-08-11T00:04:46;3.67;;;1.60;;
22359;SDS011;11347;52.030;4.690;2022-08-11T00:07:13;2.37;;;1.37;;
22359;SDS011;11347;52.030;4.690;2022-08-11T00:09:38;2.80;;;1.60;;
22359;SDS011;11347;52.030;4.690;2022-08-11T00:12:11;1.87;;;1.50;;
22359;SDS011;11347;52.030;4.690;2022-08-11T00:14:38;1.97;;;1.40;;
22359;SDS011;11347;52.030;4.690;2022-08-11T00:17:06;4.57;;;1.67;;
22359;SDS011;11347;52.030;4.690;2022-08-11T00:19:36;4.00;;;1.50;;
22359;SDS011;11347;52.030;4.690;2022-08-11T00:22:05;2.53;;;1.50;;
22359;SDS011;11347;52.030;4.690;2022-08-11T00:24:32;3.67;;;1.53;;
22359;SDS011;11347;52.030;4.690;2022-08-11T00:27:05;2.70;;;1.43;;
22359;SDS011;11347;52.030;4.690;2022-08-11T00:29:32;2.23;;;1.60;;
22359;SDS011;11347;52.030;4.690;2022-08-11T00:31:59;1.40;;;1.30;;
22359;SDS011;11347;52.030;4.690;2022-08-11T00:34:28;1.90;;;1.30;;
22359;SDS011;11347;52.030;4.690;2022-08-11T00:37:02;3.83;;;1.87;;
22359;SDS011;11347;52.030;4.690;2022-08-11T00:39:32;2.90;;;1.50;;
22359;SDS011;11347;52.030;4.690;2022-08-11T00:42:06;2.57;;;1.70;;
22359;SDS011;11347;52.030;4.690;2022-08-11T00:58:11;2.67;;;1.53;;
22359;SDS011;11347;52.030;4.690;2022-08-11T01:06:37;1.67;;;1.33;;
22359;SDS011;11347;52.030;4.690;2022-08-11T01:36:56;2.90;;;1.70;;
22359;SDS011;11347;52.030;4.690;2022-08-11T01:39:48;3.63;;;1.70;;
22359;SDS011;11347;52.030;4.690;2022-08-11T01:45:49;3.27;;;1.50;;
22359;SDS011;11347;52.030;4.690;2022-08-11T01:48:42;3.13;;;1.80;;
22359;SDS011;11347;52.030;4.690;2022-08-11T01:53:50;3.13;;;1.80;;
22359;SDS011;11347;52.030;4.690;2022-08-11T02:01:52;3.67;;;1.80;;
22359;SDS011;11347;52.030;4.690;2022-08-11T02:04:40;2.73;;;1.80;;
22359;SDS011;11347;52.030;4.690;2022-08-11T02:07:18;3.03;;;1.57;;
22359;SDS011;11347;52.030;4.690;2022-08-11T02:13:13;2.53;;;1.60;;
22359;SDS011;11347;52.030;4.690;2022-08-11T02:19:07;3.83;;;1.57;;
22359;SDS011;11347;52.030;4.690;2022-08-11T02:22:22;3.83;;;1.97;;
22359;SDS011;11347;52.030;4.690;2022-08-11T02:25:20;4.50;;;1.80;;
22359;SDS011;11347;52.030;4.690;2022-08-11T02:30:31;2.30;;;1.50;;
22359;SDS011;11347;52.030;4.690;2022-08-11T02:50:32;4.40;;;2.13;;
22359;SDS011;11347;52.030;4.690;2022-08-11T02:53:22;5.00;;;1.97;;
22359;SDS011;11347;52.030;4.690;2022-08-11T02:55:56;2.70;;;1.90;;
22359;SDS011;11347;52.030;4.690;2022-08-11T02:59:03;4.00;;;2.00;;
22359;SDS011;11347;52.030;4.690;2022-08-11T03:01:57;3.67;;;1.90;;
22359;SDS011;11347;52.030;4.690;2022-08-11T03:07:37;2.97;;;1.97;;
22359;SDS011;11347;52.030;4.690;2022-08-11T03:13:12;2.13;;;1.70;;
22359;SDS011;11347;52.030;4.690;2022-08-11T03:24:41;1.93;;;1.60;;
22359;SDS011;11347;52.030;4.690;2022-08-11T03:30:16;3.23;;;1.83;;
22359;SDS011;11347;52.030;4.690;2022-08-11T03:41:22;2.97;;;1.60;;
22359;SDS011;11347;52.030;4.690;2022-08-11T03:55:22;3.60;;;1.40;;
22359;SDS011;11347;52.030;4.690;2022-08-11T04:17:47;3.83;;;1.87;;
22359;SDS011;11347;52.030;4.690;2022-08-11T04:23:23;4.13;;;1.60;;
22359;SDS011;11347;52.030;4.690;2022-08-11T04:31:23;2.13;;;1.47;;
22359;SDS011;11347;52.030;4.690;2022-08-11T04:34:05;2.90;;;1.40;;
22359;SDS011;11347;52.030;4.690;2022-08-11T04:45:44;2.00;;;1.40;;
22359;SDS011;11347;52.030;4.690;2022-08-11T04:57:35;1.83;;;1.50;;
22359;SDS011;11347;52.030;4.690;2022-08-11T05:10:23;4.20;;;1.80;;
22359;SDS011;11347;52.030;4.690;2022-08-11T05:13:03;2.30;;;1.53;;
22359;SDS011;11347;52.030;4.690;2022-08-11T05:15:56;2.33;;;1.60;;
22359;SDS011;11347;52.030;4.690;2022-08-11T05:18:45;3.00;;;1.50;;
22359;SDS011;11347;52.030;4.690;2022-08-11T05:21:34;2.40;;;1.70;;
22359;SDS011;11347;52.030;4.690;2022-08-11T05:24:19;3.70;;;1.43;;
22359;SDS011;11347;52.030;4.690;2022-08-11T05:27:08;3.23;;;1.43;;
22359;SDS011;11347;52.030;4.690;2022-08-11T05:30:01;2.53;;;1.50;;
22359;SDS011;11347;52.030;4.690;2022-08-11T05:33:07;2.03;;;1.50;;
22359;SDS011;11347;52.030;4.690;2022-08-11T05:36:00;3.17;;;1.70;;
22359;SDS011;11347;52.030;4.690;2022-08-11T05:38:33;2.73;;;1.50;;
22359;SDS011;11347;52.030;4.690;2022-08-11T05:41:20;3.10;;;1.40;;
22359;SDS011;11347;52.030;4.690;2022-08-11T05:44:07;2.10;;;1.50;;
22359;SDS011;11347;52.030;4.690;2022-08-11T05:46:53;2.43;;;1.53;;
22359;SDS011;11347;52.030;4.690;2022-08-11T05:49:38;2.87;;;1.40;;
22359;SDS011;11347;52.030;4.690;2022-08-11T05:52:25;3.13;;;1.57;;
22359;SDS011;11347;52.030;4.690;2022-08-11T05:55:10;2.40;;;1.57;;
22359;SDS011;11347;52.030;4.690;2022-08-11T05:58:01;2.17;;;1.53;;
22359;SDS011;11347;52.030;4.690;2022-08-11T06:00:29;3.40;;;1.60;;
22359;SDS011;11347;52.030;4.690;2022-08-11T06:02:56;3.93;;;1.57;;
22359;SDS011;11347;52.030;4.690;2022-08-11T06:05:31;2.20;;;1.60;;
22359;SDS011;11347;52.030;4.690;2022-08-11T06:07:59;4.07;;;1.70;;
22359;SDS011;11347;52.030;4.690;2022-08-11T06:10:28;3.13;;;1.70;;
22359;SDS011;11347;52.030;4.690;2022-08-11T06:12:57;3.03;;;1.60;;
22359;SDS011;11347;52.030;4.690;2022-08-11T06:15:25;3.60;;;1.77;;
22359;SDS011;11347;52.030;4.690;2022-08-11T06:17:52;2.77;;;1.77;;
22359;SDS011;11347;52.030;4.690;2022-08-11T06:20:19;3.67;;;1.70;;
22359;SDS011;11347;52.030;4.690;2022-08-11T06:22:47;2.83;;;1.53;;
22359;SDS011;11347;52.030;4.690;2022-08-11T06:25:21;4.37;;;1.67;;
22359;SDS011;11347;52.030;4.690;2022-08-11T06:27:54;2.60;;;1.70;;
22359;SDS011;11347;52.030;4.690;2022-08-11T06:30:28;3.10;;;1.90;;
22359;SDS011;11347;52.030;4.690;2022-08-11T06:33:12;3.00;;;1.80;;
22359;SDS011;11347;52.030;4.690;2022-08-11T06:41:25;6.70;;;2.17;;
22359;SDS011;11347;52.030;4.690;2022-08-11T06:46:40;3.17;;;2.27;;
22359;SDS011;11347;52.030;4.690;2022-08-11T06:49:08;3.57;;;2.10;;
22359;SDS011;11347;52.030;4.690;2022-08-11T06:52:04;5.70;;;2.30;;
22359;SDS011;11347;52.030;4.690;2022-08-11T06:54:38;4.03;;;2.20;;
22359;SDS011;11347;52.030;4.690;2022-08-11T06:57:10;3.20;;;2.20;;
22359;SDS011;11347;52.030;4.690;2022-08-11T06:59:57;2.77;;;2.10;;
22359;SDS011;11347;52.030;4.690;2022-08-11T07:03:02;4.80;;;2.20;;
22359;SDS011;11347;52.030;4.690;2022-08-11T07:11:35;6.07;;;2.53;;
22359;SDS011;11347;52.030;4.690;2022-08-11T07:14:46;4.27;;;2.33;;
22359;SDS011;11347;52.030;4.690;2022-08-11T07:17:38;3.63;;;2.50;;
22359;SDS011;11347;52.030;4.690;2022-08-11T07:20:08;6.57;;;2.90;;
22359;SDS011;11347;52.030;4.690;2022-08-11T07:22:57;7.10;;;3.13;;
22359;SDS011;11347;52.030;4.690;2022-08-11T07:25:46;3.50;;;2.27;;
22359;SDS011;11347;52.030;4.690;2022-08-11T07:28:34;4.27;;;2.10;;
22359;SDS011;11347;52.030;4.690;2022-08-11T07:31:23;4.00;;;2.03;;
22359;SDS011;11347;52.030;4.690;2022-08-11T07:33:55;4.77;;;2.20;;
22359;SDS011;11347;52.030;4.690;2022-08-11T07:36:25;3.40;;;2.10;;
22359;SDS011;11347;52.030;4.690;2022-08-11T07:38:54;4.30;;;2.40;;
22359;SDS011;11347;52.030;4.690;2022-08-11T07:41:21;4.40;;;2.40;;
22359;SDS011;11347;52.030;4.690;2022-08-11T07:43:49;5.43;;;2.10;;
22359;SDS011;11347;52.030;4.690;2022-08-11T07:46:18;7.27;;;2.47;;
22359;SDS011;11347;52.030;4.690;2022-08-11T07:49:03;4.67;;;2.30;;
22359;SDS011;11347;52.030;4.690;2022-08-11T07:51:51;4.53;;;2.33;;
22359;SDS011;11347;52.030;4.690;2022-08-11T07:54:37;4.53;;;2.23;;
22359;SDS011;11347;52.030;4.690;2022-08-11T07:57:04;3.20;;;2.00;;
22359;SDS011;11347;52.030;4.690;2022-08-11T07:59:51;3.93;;;2.10;;
22359;SDS011;11347;52.030;4.690;2022-08-11T08:02:37;4.13;;;2.40;;
22359;SDS011;11347;52.030;4.690;2022-08-11T08:05:22;5.53;;;2.43;;
22359;SDS011;11347;52.030;4.690;2022-08-11T08:08:07;6.67;;;2.47;;
22359;SDS011;11347;52.030;4.690;2022-08-11T08:10:53;5.40;;;2.33;;
22359;SDS011;11347;52.030;4.690;2022-08-11T08:13:38;4.13;;;2.00;;
22359;SDS011;11347;52.030;4.690;2022-08-11T08:16:24;4.73;;;2.30;;
22359;SDS011;11347;52.030;4.690;2022-08-11T08:19:12;4.67;;;2.07;;
22359;SDS011;11347;52.030;4.690;2022-08-11T08:21:40;6.57;;;2.20;;
22359;SDS011;11347;52.030;4.690;2022-08-11T08:24:06;4.20;;;2.10;;
22359;SDS011;11347;52.030;4.690;2022-08-11T08:26:32;4.50;;;2.20;;
22359;SDS011;11347;52.030;4.690;2022-08-11T08:29:30;5.13;;;2.10;;
22359;SDS011;11347;52.030;4.690;2022-08-11T08:32:17;5.60;;;2.00;;
22359;SDS011;11347;52.030;4.690;2022-08-11T08:34:45;4.27;;;1.93;;
22359;SDS011;11347;52.030;4.690;2022-08-11T08:37:19;3.63;;;1.93;;
22359;SDS011;11347;52.030;4.690;2022-08-11T08:39:47;5.20;;;1.90;;
22359;SDS011;11347;52.030;4.690;2022-08-11T08:42:17;3.23;;;1.70;;
22359;SDS011;11347;52.030;4.690;2022-08-11T08:44:50;3.70;;;1.83;;
22359;SDS011;11347;52.030;4.690;2022-08-11T08:47:20;4.33;;;1.97;;
22359;SDS011;11347;52.030;4.690;2022-08-11T08:49:51;5.17;;;1.90;;
22359;SDS011;11347;52.030;4.690;2022-08-11T08:52:24;4.10;;;1.60;;
22359;SDS011;11347;52.030;4.690;2022-08-11T08:54:55;5.23;;;1.97;;
22359;SDS011;11347;52.030;4.690;2022-08-11T08:57:26;4.80;;;1.60;;
22359;SDS011;11347;52.030;4.690;2022-08-11T08:59:53;3.30;;;1.50;;
22359;SDS011;11347;52.030;4.690;2022-08-11T09:02:22;3.93;;;1.63;;
22359;SDS011;11347;52.030;4.690;2022-08-11T09:04:50;7.43;;;1.90;;
22359;SDS011;11347;52.030;4.690;2022-08-11T09:07:16;4.20;;;1.83;;
22359;SDS011;11347;52.030;4.690;2022-08-11T09:09:47;5.77;;;1.63;;
22359;SDS011;11347;52.030;4.690;2022-08-11T09:12:19;3.93;;;1.67;;
22359;SDS011;11347;52.030;4.690;2022-08-11T09:14:46;2.17;;;1.70;;
22359;SDS011;11347;52.030;4.690;2022-08-11T09:17:34;3.37;;;1.53;;
22359;SDS011;11347;52.030;4.690;2022-08-11T09:20:20;3.17;;;1.57;;
22359;SDS011;11347;52.030;4.690;2022-08-11T09:22:49;3.77;;;1.70;;
22359;SDS011;11347;52.030;4.690;2022-08-11T09:25:34;2.77;;;1.60;;
22359;SDS011;11347;52.030;4.690;2022-08-11T09:28:19;4.87;;;1.73;;
22359;SDS011;11347;52.030;4.690;2022-08-11T09:30:50;3.13;;;1.53;;
22359;SDS011;11347;52.030;4.690;2022-08-11T09:33:19;4.27;;;1.63;;
22359;SDS011;11347;52.030;4.690;2022-08-11T09:35:47;3.70;;;1.80;;
22359;SDS011;11347;52.030;4.690;2022-08-11T09:38:16;3.00;;;1.67;;
22359;SDS011;11347;52.030;4.690;2022-08-11T09:41:02;3.07;;;1.77;;
22359;SDS011;11347;52.030;4.690;2022-08-11T09:43:30;3.67;;;1.57;;
22359;SDS011;11347;52.030;4.690;2022-08-11T09:46:15;4.17;;;1.73;;
22359;SDS011;11347;52.030;4.690;2022-08-11T09:48:46;2.03;;;1.53;;
22359;SDS011;11347;52.030;4.690;2022-08-11T09:51:12;4.67;;;1.50;;
22359;SDS011;11347;52.030;4.690;2022-08-11T09:53:40;2.50;;;1.50;;
22359;SDS011;11347;52.030;4.690;2022-08-11T09:56:11;3.03;;;1.40;;
22359;SDS011;11347;52.030;4.690;2022-08-11T09:58:58;3.83;;;1.60;;
22359;SDS011;11347;52.030;4.690;2022-08-11T10:01:28;5.80;;;1.90;;
22359;SDS011;11347;52.030;4.690;2022-08-11T10:04:17;3.33;;;1.70;;
22359;SDS011;11347;52.030;4.690;2022-08-11T10:06:51;3.63;;;1.60;;
22359;SDS011;11347;52.030;4.690;2022-08-11T10:12:33;3.57;;;1.60;;
22359;SDS011;11347;52.030;4.690;2022-08-11T10:15:02;3.53;;;1.70;;
22359;SDS011;11347;52.030;4.690;2022-08-11T10:17:52;2.53;;;1.80;;
22359;SDS011;11347;52.030;4.690;2022-08-11T10:20:39;3.50;;;1.80;;
22359;SDS011;11347;52.030;4.690;2022-08-11T10:23:06;2.60;;;1.63;;
22359;SDS011;11347;52.030;4.690;2022-08-11T10:25:52;3.63;;;1.67;;
22359;SDS011;11347;52.030;4.690;2022-08-11T10:28:37;4.27;;;1.50;;
22359;SDS011;11347;52.030;4.690;2022-08-11T10:31:03;2.87;;;1.70;;
22359;SDS011;11347;52.030;4.690;2022-08-11T10:33:48;4.60;;;1.70;;
22359;SDS011;11347;52.030;4.690;2022-08-11T10:36:30;6.43;;;1.60;;
22359;SDS011;11347;52.030;4.690;2022-08-11T10:39:06;2.20;;;1.67;;
22359;SDS011;11347;52.030;4.690;2022-08-11T10:41:33;4.70;;;1.77;;
22359;SDS011;11347;52.030;4.690;2022-08-11T10:44:18;4.50;;;1.80;;
22359;SDS011;11347;52.030;4.690;2022-08-11T10:46:46;3.00;;;1.80;;
22359;SDS011;11347;52.030;4.690;2022-08-11T10:49:30;4.30;;;1.70;;
22359;SDS011;11347;52.030;4.690;2022-08-11T10:51:57;4.67;;;2.00;;
22359;SDS011;11347;52.030;4.690;2022-08-11T10:54:41;1.80;;;1.47;;
22359;SDS011;11347;52.030;4.690;2022-08-11T10:57:27;2.83;;;1.53;;
22359;SDS011;11347;52.030;4.690;2022-08-11T11:00:12;2.83;;;1.73;;
22359;SDS011;11347;52.030;4.690;2022-08-11T11:02:40;4.57;;;1.77;;
22359;SDS011;11347;52.030;4.690;2022-08-11T11:05:17;4.17;;;1.50;;
22359;SDS011;11347;52.030;4.690;2022-08-11T11:07:57;3.90;;;1.70;;
22359;SDS011;11347;52.030;4.690;2022-08-11T11:10:50;2.57;;;1.60;;
22359;SDS011;11347;52.030;4.690;2022-08-11T11:13:17;2.53;;;1.57;;
22359;SDS011;11347;52.030;4.690;2022-08-11T11:16:03;3.57;;;1.70;;
22359;SDS011;11347;52.030;4.690;2022-08-11T11:18:48;4.23;;;1.70;;
22359;SDS011;11347;52.030;4.690;2022-08-11T11:21:16;2.73;;;1.40;;
22359;SDS011;11347;52.030;4.690;2022-08-11T11:29:17;3.37;;;1.57;;
22359;SDS011;11347;52.030;4.690;2022-08-11T11:34:44;3.80;;;1.80;;
22359;SDS011;11347;52.030;4.690;2022-08-11T11:37:25;2.50;;;1.67;;
22359;SDS011;11347;52.030;4.690;2022-08-11T11:39:53;3.30;;;1.70;;
22359;SDS011;11347;52.030;4.690;2022-08-11T11:42:21;5.60;;;1.63;;
22359;SDS011;11347;52.030;4.690;2022-08-11T11:44:47;2.53;;;1.80;;
22359;SDS011;11347;52.030;4.690;2022-08-11T11:47:14;4.13;;;1.57;;
22359;SDS011;11347;52.030;4.690;2022-08-11T11:49:43;2.50;;;1.50;;
22359;SDS011;11347;52.030;4.690;2022-08-11T11:52:18;4.80;;;1.60;;
22359;SDS011;11347;52.030;4.690;2022-08-11T11:54:48;3.00;;;2.03;;
22359;SDS011;11347;52.030;4.690;2022-08-11T11:57:18;2.40;;;1.43;;
22359;SDS011;11347;52.030;4.690;2022-08-11T12:00:04;3.10;;;1.50;;
22359;SDS011;11347;52.030;4.690;2022-08-11T12:02:51;2.10;;;1.40;;
22359;SDS011;11347;52.030;4.690;2022-08-11T12:05:17;3.17;;;1.60;;
22359;SDS011;11347;52.030;4.690;2022-08-11T12:07:43;3.87;;;1.60;;
22359;SDS011;11347;52.030;4.690;2022-08-11T12:10:29;3.37;;;1.93;;
22359;SDS011;11347;52.030;4.690;2022-08-11T12:12:58;2.57;;;1.80;;
22359;SDS011;11347;52.030;4.690;2022-08-11T12:15:45;2.07;;;1.50;;
22359;SDS011;11347;52.030;4.690;2022-08-11T12:18:12;2.43;;;1.27;;
22359;SDS011;11347;52.030;4.690;2022-08-11T12:20:38;2.73;;;1.47;;
22359;SDS011;11347;52.030;4.690;2022-08-11T12:23:04;2.00;;;1.27;;
22359;SDS011;11347;52.030;4.690;2022-08-11T12:25:49;3.33;;;1.50;;
22359;SDS011;11347;52.030;4.690;2022-08-11T12:28:34;2.90;;;1.40;;
22359;SDS011;11347;52.030;4.690;2022-08-11T12:31:00;2.33;;;1.27;;
22359;SDS011;11347;52.030;4.690;2022-08-11T12:33:27;2.77;;;1.60;;
22359;SDS011;11347;52.030;4.690;2022-08-11T12:35:55;2.77;;;1.50;;
22359;SDS011;11347;52.030;4.690;2022-08-11T12:38:23;3.80;;;1.40;;
22359;SDS011;11347;52.030;4.690;2022-08-11T12:40:50;2.73;;;1.30;;
22359;SDS011;11347;52.030;4.690;2022-08-11T12:43:36;3.27;;;2.13;;
22359;SDS011;11347;52.030;4.690;2022-08-11T12:46:21;2.87;;;1.30;;
22359;SDS011;11347;52.030;4.690;2022-08-11T12:48:56;2.27;;;1.43;;
22359;SDS011;11347;52.030;4.690;2022-08-11T12:51:44;4.57;;;1.60;;
22359;SDS011;11347;52.030;4.690;2022-08-11T12:54:25;1.87;;;1.27;;
22359;SDS011;11347;52.030;4.690;2022-08-11T12:57:14;2.20;;;1.40;;
22359;SDS011;11347;52.030;4.690;2022-08-11T13:00:08;2.97;;;1.50;;
22359;SDS011;11347;52.030;4.690;2022-08-11T13:02:53;5.43;;;1.70;;
22359;SDS011;11347;52.030;4.690;2022-08-11T13:05:38;2.07;;;1.40;;
22359;SDS011;11347;52.030;4.690;2022-08-11T13:08:06;4.00;;;1.60;;
22359;SDS011;11347;52.030;4.690;2022-08-11T13:10:32;3.73;;;1.50;;
22359;SDS011;11347;52.030;4.690;2022-08-11T13:13:17;2.80;;;1.40;;
22359;SDS011;11347;52.030;4.690;2022-08-11T13:15:47;3.13;;;1.30;;
22359;SDS011;11347;52.030;4.690;2022-08-11T13:18:14;1.60;;;1.30;;
22359;SDS011;11347;52.030;4.690;2022-08-11T13:20:41;2.77;;;1.30;;
22359;SDS011;11347;52.030;4.690;2022-08-11T13:23:08;1.97;;;1.33;;
22359;SDS011;11347;52.030;4.690;2022-08-11T13:25:36;2.77;;;1.40;;
22359;SDS011;11347;52.030;4.690;2022-08-11T13:28:03;4.63;;;1.67;;
22359;SDS011;11347;52.030;4.690;2022-08-11T13:30:30;2.23;;;1.43;;
22359;SDS011;11347;52.030;4.690;2022-08-11T13:33:16;3.07;;;1.50;;
22359;SDS011;11347;52.030;4.690;2022-08-11T13:35:46;2.07;;;1.10;;
22359;SDS011;11347;52.030;4.690;2022-08-11T13:38:15;2.40;;;1.60;;
22359;SDS011;11347;52.030;4.690;2022-08-11T13:40:43;2.87;;;1.53;;
22359;SDS011;11347;52.030;4.690;2022-08-11T13:43:09;2.10;;;1.33;;
22359;SDS011;11347;52.030;4.690;2022-08-11T13:45:38;2.37;;;1.27;;
22359;SDS011;11347;52.030;4.690;2022-08-11T13:48:05;1.97;;;1.40;;
22359;SDS011;11347;52.030;4.690;2022-08-11T13:50:34;2.47;;;1.50;;
22359;SDS011;11347;52.030;4.690;2022-08-11T13:53:23;5.13;;;1.43;;
22359;SDS011;11347;52.030;4.690;2022-08-11T13:55:50;2.20;;;1.27;;
22359;SDS011;11347;52.030;4.690;2022-08-11T13:58:16;3.23;;;1.60;;
22359;SDS011;11347;52.030;4.690;2022-08-11T14:00:43;3.67;;;1.37;;
22359;SDS011;11347;52.030;4.690;2022-08-11T14:03:12;3.23;;;1.40;;
22359;SDS011;11347;52.030;4.690;2022-08-11T14:05:44;2.53;;;1.30;;
22359;SDS011;11347;52.030;4.690;2022-08-11T14:08:13;2.40;;;1.60;;
22359;SDS011;11347;52.030;4.690;2022-08-11T14:10:42;2.47;;;1.20;;
22359;SDS011;11347;52.030;4.690;2022-08-11T14:13:12;1.83;;;1.30;;
22359;SDS011;11347;52.030;4.690;2022-08-11T14:16:00;2.07;;;1.40;;
22359;SDS011;11347;52.030;4.690;2022-08-11T14:18:29;2.40;;;1.40;;
22359;SDS011;11347;52.030;4.690;2022-08-11T14:20:57;3.20;;;1.60;;
22359;SDS011;11347;52.030;4.690;2022-08-11T14:23:49;3.10;;;1.90;;
22359;SDS011;11347;52.030;4.690;2022-08-11T14:26:18;3.50;;;1.40;;
22359;SDS011;11347;52.030;4.690;2022-08-11T14:28:51;5.50;;;1.70;;
22359;SDS011;11347;52.030;4.690;2022-08-11T14:31:26;4.53;;;1.53;;
22359;SDS011;11347;52.030;4.690;2022-08-11T14:33:55;2.47;;;1.60;;
22359;SDS011;11347;52.030;4.690;2022-08-11T14:36:24;3.03;;;1.40;;
22359;SDS011;11347;52.030;4.690;2022-08-11T14:38:51;2.13;;;1.50;;
22359;SDS011;11347;52.030;4.690;2022-08-11T14:41:20;3.43;;;1.70;;
22359;SDS011;11347;52.030;4.690;2022-08-11T14:44:07;2.20;;;1.40;;
22359;SDS011;11347;52.030;4.690;2022-08-11T14:46:52;2.80;;;1.60;;
22359;SDS011;11347;52.030;4.690;2022-08-11T14:49:28;1.70;;;1.37;;
22359;SDS011;11347;52.030;4.690;2022-08-11T14:51:55;8.80;;;1.77;;
22359;SDS011;11347;52.030;4.690;2022-08-11T14:54:27;1.97;;;1.47;;
22359;SDS011;11347;52.030;4.690;2022-08-11T14:57:13;3.03;;;1.40;;
22359;SDS011;11347;52.030;4.690;2022-08-11T14:59:41;3.30;;;1.50;;
22359;SDS011;11347;52.030;4.690;2022-08-11T15:02:07;2.73;;;1.40;;
22359;SDS011;11347;52.030;4.690;2022-08-11T15:04:53;3.37;;;1.40;;
22359;SDS011;11347;52.030;4.690;2022-08-11T15:07:20;2.60;;;1.30;;
22359;SDS011;11347;52.030;4.690;2022-08-11T15:09:53;2.03;;;1.20;;
22359;SDS011;11347;52.030;4.690;2022-08-11T15:12:26;2.53;;;1.40;;
22359;SDS011;11347;52.030;4.690;2022-08-11T15:14:53;2.70;;;1.40;;
22359;SDS011;11347;52.030;4.690;2022-08-11T15:17:38;3.00;;;1.40;;
22359;SDS011;11347;52.030;4.690;2022-08-11T15:20:06;2.37;;;1.30;;
22359;SDS011;11347;52.030;4.690;2022-08-11T15:22:53;2.00;;;1.17;;
22359;SDS011;11347;52.030;4.690;2022-08-11T15:25:38;2.43;;;1.10;;
22359;SDS011;11347;52.030;4.690;2022-08-11T15:28:06;2.23;;;1.43;;
22359;SDS011;11347;52.030;4.690;2022-08-11T15:30:53;1.93;;;1.20;;
22359;SDS011;11347;52.030;4.690;2022-08-11T15:33:39;3.17;;;1.47;;
22359;SDS011;11347;52.030;4.690;2022-08-11T15:36:26;2.30;;;1.40;;
22359;SDS011;11347;52.030;4.690;2022-08-11T15:42:27;2.43;;;1.20;;
22359;SDS011;11347;52.030;4.690;2022-08-11T15:45:12;3.23;;;1.33;;
22359;SDS011;11347;52.030;4.690;2022-08-11T15:48:01;1.83;;;1.20;;
22359;SDS011;11347;52.030;4.690;2022-08-11T15:50:32;2.90;;;1.40;;
22359;SDS011;11347;52.030;4.690;2022-08-11T15:53:02;2.27;;;1.10;;
22359;SDS011;11347;52.030;4.690;2022-08-11T15:55:32;2.80;;;1.30;;
22359;SDS011;11347;52.030;4.690;2022-08-11T15:58:01;1.90;;;1.20;;
22359;SDS011;11347;52.030;4.690;2022-08-11T16:00:50;2.60;;;1.30;;
22359;SDS011;11347;52.030;4.690;2022-08-11T16:03:44;1.60;;;1.13;;
22359;SDS011;11347;52.030;4.690;2022-08-11T16:06:36;2.33;;;1.10;;
22359;SDS011;11347;52.030;4.690;2022-08-11T16:09:34;2.10;;;1.30;;
22359;SDS011;11347;52.030;4.690;2022-08-11T16:12:03;2.97;;;1.20;;
22359;SDS011;11347;52.030;4.690;2022-08-11T16:14:35;4.50;;;1.50;;
22359;SDS011;11347;52.030;4.690;2022-08-11T16:17:24;5.37;;;1.33;;
22359;SDS011;11347;52.030;4.690;2022-08-11T16:19:52;5.47;;;1.50;;
22359;SDS011;11347;52.030;4.690;2022-08-11T16:22:21;2.10;;;1.20;;
22359;SDS011;11347;52.030;4.690;2022-08-11T16:24:58;3.83;;;1.30;;
22359;SDS011;11347;52.030;4.690;2022-08-11T16:27:25;2.37;;;1.20;;
22359;SDS011;11347;52.030;4.690;2022-08-11T16:29:51;3.80;;;1.40;;
22359;SDS011;11347;52.030;4.690;2022-08-11T16:32:19;5.20;;;1.40;;
22359;SDS011;11347;52.030;4.690;2022-08-11T16:34:57;3.53;;;1.60;;
22359;SDS011;11347;52.030;4.690;2022-08-11T16:37:44;3.90;;;1.93;;
22359;SDS011;11347;52.030;4.690;2022-08-11T16:40:29;3.07;;;1.67;;
22359;SDS011;11347;52.030;4.690;2022-08-11T16:42:56;2.73;;;1.50;;
22359;SDS011;11347;52.030;4.690;2022-08-11T16:45:41;1.67;;;1.37;;
22359;SDS011;11347;52.030;4.690;2022-08-11T16:48:29;3.47;;;1.40;;
22359;SDS011;11347;52.030;4.690;2022-08-11T16:50:58;2.57;;;1.17;;
22359;SDS011;11347;52.030;4.690;2022-08-11T16:53:25;1.83;;;1.20;;
22359;SDS011;11347;52.030;4.690;2022-08-11T16:55:54;3.67;;;1.33;;
22359;SDS011;11347;52.030;4.690;2022-08-11T16:58:23;3.40;;;1.33;;
22359;SDS011;11347;52.030;4.690;2022-08-11T17:01:08;4.50;;;1.80;;
22359;SDS011;11347;52.030;4.690;2022-08-11T17:03:38;3.53;;;1.60;;
22359;SDS011;11347;52.030;4.690;2022-08-11T17:06:27;2.57;;;1.40;;
22359;SDS011;11347;52.030;4.690;2022-08-11T17:09:32;4.17;;;1.27;;
22359;SDS011;11347;52.030;4.690;2022-08-11T17:12:18;3.73;;;1.20;;
22359;SDS011;11347;52.030;4.690;2022-08-11T17:15:05;4.53;;;1.20;;
22359;SDS011;11347;52.030;4.690;2022-08-11T17:17:57;2.73;;;1.10;;
22359;SDS011;11347;52.030;4.690;2022-08-11T17:20:24;2.33;;;1.20;;
22359;SDS011;11347;52.030;4.690;2022-08-11T17:22:51;3.97;;;1.30;;
22359;SDS011;11347;52.030;4.690;2022-08-11T17:25:37;2.40;;;1.17;;
22359;SDS011;11347;52.030;4.690;2022-08-11T17:28:04;3.37;;;1.30;;
22359;SDS011;11347;52.030;4.690;2022-08-11T17:30:30;2.90;;;1.67;;
22359;SDS011;11347;52.030;4.690;2022-08-11T17:33:15;3.93;;;1.50;;
22359;SDS011;11347;52.030;4.690;2022-08-11T17:36:01;2.80;;;1.40;;
22359;SDS011;11347;52.030;4.690;2022-08-11T17:38:27;3.23;;;1.37;;
22359;SDS011;11347;52.030;4.690;2022-08-11T17:40:55;7.10;;;1.40;;
22359;SDS011;11347;52.030;4.690;2022-08-11T17:43:42;4.60;;;1.60;;
22359;SDS011;11347;52.030;4.690;2022-08-11T17:46:29;3.60;;;1.30;;
22359;SDS011;11347;52.030;4.690;2022-08-11T17:49:15;1.70;;;1.10;;
22359;SDS011;11347;52.030;4.690;2022-08-11T17:51:44;2.90;;;1.30;;
22359;SDS011;11347;52.030;4.690;2022-08-11T17:54:30;2.23;;;1.20;;
22359;SDS011;11347;52.030;4.690;2022-08-11T17:57:17;2.10;;;1.13;;
22359;SDS011;11347;52.030;4.690;2022-08-11T18:00:03;2.03;;;1.10;;
22359;SDS011;11347;52.030;4.690;2022-08-11T18:02:34;1.90;;;1.00;;
22359;SDS011;11347;52.030;4.690;2022-08-11T18:05:29;2.20;;;1.20;;
22359;SDS011;11347;52.030;4.690;2022-08-11T18:07:58;2.47;;;1.10;;
22359;SDS011;11347;52.030;4.690;2022-08-11T18:10:47;4.80;;;1.60;;
22359;SDS011;11347;52.030;4.690;2022-08-11T18:13:36;3.70;;;1.20;;
22359;SDS011;11347;52.030;4.690;2022-08-11T18:16:22;2.53;;;1.20;;
22359;SDS011;11347;52.030;4.690;2022-08-11T18:19:07;2.90;;;1.20;;
22359;SDS011;11347;52.030;4.690;2022-08-11T18:21:52;3.13;;;1.33;;
22359;SDS011;11347;52.030;4.690;2022-08-11T18:24:42;4.80;;;1.37;;
22359;SDS011;11347;52.030;4.690;2022-08-11T18:27:29;2.17;;;1.20;;
22359;SDS011;11347;52.030;4.690;2022-08-11T18:30:16;2.50;;;1.30;;
22359;SDS011;11347;52.030;4.690;2022-08-11T18:33:01;4.50;;;1.33;;
22359;SDS011;11347;52.030;4.690;2022-08-11T18:35:49;3.53;;;1.30;;
22359;SDS011;11347;52.030;4.690;2022-08-11T18:38:38;3.17;;;1.33;;
22359;SDS011;11347;52.030;4.690;2022-08-11T18:41:24;6.87;;;1.40;;
22359;SDS011;11347;52.030;4.690;2022-08-11T18:44:11;1.83;;;1.20;;
22359;SDS011;11347;52.030;4.690;2022-08-11T18:46:58;1.90;;;1.00;;
22359;SDS011;11347;52.030;4.690;2022-08-11T18:49:48;3.43;;;1.50;;
22359;SDS011;11347;52.030;4.690;2022-08-11T18:52:37;6.87;;;1.40;;
22359;SDS011;11347;52.030;4.690;2022-08-11T18:55:26;2.73;;;1.40;;
22359;SDS011;11347;52.030;4.690;2022-08-11T18:58:13;4.87;;;1.50;;
22359;SDS011;11347;52.030;4.690;2022-08-11T19:01:00;4.30;;;1.10;;
22359;SDS011;11347;52.030;4.690;2022-08-11T19:03:46;3.30;;;1.30;;
22359;SDS011;11347;52.030;4.690;2022-08-11T19:06:33;2.30;;;1.10;;
22359;SDS011;11347;52.030;4.690;2022-08-11T19:09:19;2.27;;;1.10;;
22359;SDS011;11347;52.030;4.690;2022-08-11T19:12:05;2.93;;;1.20;;
22359;SDS011;11347;52.030;4.690;2022-08-11T19:14:51;3.53;;;1.43;;
22359;SDS011;11347;52.030;4.690;2022-08-11T19:17:40;2.43;;;1.27;;
22359;SDS011;11347;52.030;4.690;2022-08-11T19:20:27;3.17;;;1.20;;